Time;durP1;ratioP1;P1;durP2;ratioP2;P2;SDS_P1;SDS_P2;PMS_P1;PMS_P2;Temp;Humidity;BMP_temperature;BMP_pressure;BME280_temperature;BME280_humidity;BME280_pressure;Samples;Min_cycle;Max_cycle;Signal;HPM_P1;HPM_P2
2021/03/16 00:01:05;;;;;;;7.15;1.40;;;3.90;90.20;;;;;;5067642;28;20088;-69
2021/03/16 00:03:33;;;;;;;4.90;1.45;;;3.90;90.20;;;;;;5067517;28;20488;-69
2021/03/16 00:05:59;;;;;;;9.25;2.00;;;3.90;90.40;;;;;;5068058;28;20158;-69
2021/03/16 00:08:25;;;;;;;5.88;1.67;;;3.80;90.20;;;;;;5068695;28;20056;-69
2021/03/16 00:10:51;;;;;;;5.53;1.33;;;3.80;90.10;;;;;;5067584;28;20133;-69
2021/03/16 00:13:22;;;;;;;9.32;1.77;;;3.80;90.10;;;;;;5066930;28;20025;-69
2021/03/16 00:15:48;;;;;;;2.17;1.10;;;3.80;90.10;;;;;;5065997;28;20569;-69
2021/03/16 00:18:15;;;;;;;7.13;1.50;;;3.80;90.30;;;;;;5067318;28;20043;-69
2021/03/16 00:20:44;;;;;;;8.00;1.90;;;3.80;90.20;;;;;;5067210;28;20025;-70
2021/03/16 00:23:10;;;;;;;7.03;1.73;;;3.80;90.20;;;;;;5068297;28;20050;-69
2021/03/16 00:25:37;;;;;;;6.55;1.67;;;3.70;89.50;;;;;;5068002;28;20079;-69
2021/03/16 00:28:04;;;;;;;7.45;2.00;;;3.70;89.90;;;;;;5070626;28;20044;-69
2021/03/16 00:30:29;;;;;;;7.45;2.15;;;3.70;89.30;;;;;;5064745;28;20033;-69
2021/03/16 00:32:55;;;;;;;7.28;1.58;;;3.70;90.10;;;;;;5066308;28;20120;-69
2021/03/16 00:35:21;;;;;;;5.05;1.70;;;3.60;90.00;;;;;;5067348;28;20485;-69
2021/03/16 00:37:47;;;;;;;7.80;2.35;;;3.60;90.20;;;;;;5068952;28;20043;-69
2021/03/16 00:40:13;;;;;;;7.72;1.80;;;3.60;90.00;;;;;;5065499;28;20029;-69
2021/03/16 00:42:39;;;;;;;6.30;1.95;;;3.60;89.50;;;;;;5068947;28;20017;-69
2021/03/16 00:45:06;;;;;;;5.28;1.42;;;3.50;89.80;;;;;;5068613;28;20399;-69
2021/03/16 00:47:32;;;;;;;7.70;1.92;;;3.50;90.30;;;;;;5066281;28;20033;-70
2021/03/16 00:49:58;;;;;;;11.02;2.83;;;3.50;90.00;;;;;;5067931;28;20033;-69
2021/03/16 00:52:23;;;;;;;5.78;1.63;;;3.50;90.10;;;;;;5069288;28;20025;-69
2021/03/16 00:54:49;;;;;;;4.93;1.70;;;3.50;90.10;;;;;;5066737;28;20509;-69
2021/03/16 00:57:15;;;;;;;7.97;1.80;;;3.50;90.10;;;;;;5065431;28;20042;-69
2021/03/16 00:59:41;;;;;;;4.75;1.20;;;3.40;90.20;;;;;;5068094;28;20040;-69
2021/03/16 01:02:07;;;;;;;6.50;1.30;;;3.40;90.30;;;;;;5067614;28;20028;-69
2021/03/16 01:04:33;;;;;;;5.30;1.50;;;3.40;90.10;;;;;;5067951;28;20024;-69
2021/03/16 01:06:59;;;;;;;4.05;1.23;;;3.40;90.30;;;;;;5065280;28;20021;-69
2021/03/16 01:09:24;;;;;;;6.55;1.40;;;3.40;89.70;;;;;;5065580;28;20048;-69
2021/03/16 01:11:50;;;;;;;5.80;1.60;;;3.40;90.30;;;;;;5068404;28;20032;-69
2021/03/16 01:14:16;;;;;;;6.88;1.75;;;3.40;90.00;;;;;;5067591;28;20029;-69
2021/03/16 01:16:42;;;;;;;4.72;1.52;;;3.40;90.10;;;;;;5065712;28;20025;-69
2021/03/16 01:19:10;;;;;;;7.13;1.77;;;3.40;89.70;;;;;;5068611;28;20021;-69
2021/03/16 01:21:36;;;;;;;5.63;1.67;;;3.40;90.30;;;;;;5067467;28;20492;-69
2021/03/16 01:24:01;;;;;;;5.25;1.40;;;3.30;90.20;;;;;;5065222;28;20036;-69
2021/03/16 01:26:27;;;;;;;5.63;1.50;;;3.30;90.40;;;;;;5067753;28;20029;-69
2021/03/16 01:28:53;;;;;;;6.07;1.30;;;3.20;90.10;;;;;;5067912;28;20029;-69
2021/03/16 01:31:18;;;;;;;4.85;1.50;;;3.20;90.00;;;;;;5073950;28;20123;-69
2021/03/16 01:33:44;;;;;;;4.18;1.60;;;3.10;90.00;;;;;;5067486;28;20432;-69
2021/03/16 01:36:12;;;;;;;4.28;1.30;;;3.20;90.20;;;;;;5065969;28;20036;-69
2021/03/16 01:38:38;;;;;;;6.13;1.50;;;3.10;90.20;;;;;;5067596;28;20025;-69
2021/03/16 01:41:04;;;;;;;11.00;1.73;;;3.20;90.30;;;;;;5063984;28;20571;-69
2021/03/16 01:43:31;;;;;;;3.42;1.10;;;3.20;90.40;;;;;;5067333;28;20098;-69
2021/03/16 01:45:58;;;;;;;5.93;1.90;;;3.10;90.10;;;;;;5068700;28;20024;-69
2021/03/16 01:48:32;;;;;;;10.85;1.55;;;3.10;90.40;;;;;;5067345;28;20036;-69
2021/03/16 01:51:00;;;;;;;6.20;1.92;;;3.10;90.20;;;;;;5064385;28;20151;-69
2021/03/16 01:53:26;;;;;;;5.88;1.45;;;3.10;90.40;;;;;;5067812;28;20105;-69
2021/03/16 01:55:54;;;;;;;4.45;1.50;;;3.10;90.10;;;;;;5067006;28;20108;-69
2021/03/16 01:58:20;;;;;;;7.32;1.60;;;3.10;90.30;;;;;;5065219;28;20581;-68
2021/03/16 02:00:45;;;;;;;2.85;1.55;;;3.10;90.40;;;;;;5065561;28;20119;-69
2021/03/16 02:03:12;;;;;;;6.75;1.30;;;3.10;90.50;;;;;;5069331;28;20029;-69
2021/03/16 02:05:39;;;;;;;3.17;1.17;;;3.10;90.10;;;;;;5059135;28;20520;-69
2021/03/16 02:08:28;;;;;;;4.47;1.30;;;3.10;90.30;;;;;;5065636;28;20119;-69
2021/03/16 02:11:26;;;;;;;7.25;1.30;;;3.10;90.20;;;;;;5068211;28;20029;-69
2021/03/16 02:14:26;;;;;;;7.13;1.50;;;3.10;90.40;;;;;;5067636;28;20044;-69
2021/03/16 02:16:53;;;;;;;6.53;1.30;;;3.10;90.40;;;;;;5065362;28;20074;-69
2021/03/16 02:20:06;;;;;;;4.32;1.08;;;3.10;90.60;;;;;;5066383;28;20128;-69
2021/03/16 02:22:36;;;;;;;7.72;1.92;;;3.10;90.40;;;;;;5068489;28;20039;-69
2021/03/16 02:25:08;;;;;;;6.35;1.83;;;3.10;90.70;;;;;;5066627;28;20583;-69
2021/03/16 02:28:01;;;;;;;8.15;2.65;;;3.10;90.90;;;;;;5070716;28;20028;-69
2021/03/16 02:30:29;;;;;;;4.50;1.27;;;3.00;90.70;;;;;;5071046;28;20466;-69
2021/03/16 02:32:56;;;;;;;10.45;1.48;;;3.10;91.10;;;;;;5068682;28;20575;-68
2021/03/16 02:35:23;;;;;;;8.18;2.88;;;3.00;91.30;;;;;;5068722;28;20066;-69
2021/03/16 02:37:50;;;;;;;6.32;1.40;;;3.00;91.20;;;;;;5071647;28;20821;-69
2021/03/16 02:40:19;;;;;;;6.85;1.77;;;3.00;91.10;;;;;;5067031;28;20032;-69
2021/03/16 02:42:45;;;;;;;7.50;1.55;;;3.00;91.30;;;;;;5072265;28;20786;-69
2021/03/16 02:45:11;;;;;;;3.67;1.52;;;3.00;91.40;;;;;;5068544;28;20028;-69
2021/03/16 02:47:39;;;;;;;5.05;2.05;;;2.90;91.60;;;;;;5069892;28;20029;-69
2021/03/16 02:50:09;;;;;;;8.07;1.63;;;2.90;91.70;;;;;;5071054;28;20093;-69
2021/03/16 02:52:37;;;;;;;6.30;1.30;;;3.00;91.80;;;;;;5071284;28;20035;-69
2021/03/16 02:55:05;;;;;;;10.40;3.17;;;3.00;91.70;;;;;;5069819;28;20540;-69
2021/03/16 02:57:32;;;;;;;12.55;2.45;;;2.90;91.80;;;;;;5069636;28;20033;-69
2021/03/16 03:00:01;;;;;;;10.00;1.90;;;2.90;92.00;;;;;;5063916;28;20028;-68
2021/03/16 03:02:29;;;;;;;8.45;2.28;;;2.90;92.20;;;;;;5066082;28;20021;-69
2021/03/16 03:04:56;;;;;;;7.68;2.03;;;2.90;92.60;;;;;;5071100;28;20021;-69
2021/03/16 03:07:24;;;;;;;12.48;2.50;;;2.90;92.40;;;;;;5069289;28;20040;-69
2021/03/16 03:09:50;;;;;;;9.13;2.53;;;2.90;92.30;;;;;;5070849;28;20025;-70
2021/03/16 03:12:15;;;;;;;6.50;2.25;;;2.90;92.50;;;;;;5070982;28;20029;-69
2021/03/16 03:14:41;;;;;;;12.13;2.42;;;2.90;92.40;;;;;;5065669;28;20585;-69
2021/03/16 03:17:08;;;;;;;9.85;2.63;;;2.90;92.60;;;;;;5069618;28;20133;-69
2021/03/16 03:19:34;;;;;;;11.73;3.05;;;2.90;92.80;;;;;;5053118;28;20082;-69
2021/03/16 03:22:09;;;;;;;10.55;2.60;;;3.00;93.00;;;;;;5068530;28;20064;-69
2021/03/16 03:24:43;;;;;;;11.10;2.95;;;2.90;92.90;;;;;;5067038;28;20478;-70
2021/03/16 03:27:18;;;;;;;16.25;3.65;;;2.90;93.20;;;;;;5069684;28;20040;-69
2021/03/16 03:29:46;;;;;;;8.20;2.90;;;3.00;93.40;;;;;;5068937;28;20025;-69
2021/03/16 03:32:14;;;;;;;12.35;3.30;;;3.00;93.40;;;;;;5068003;28;20199;-69
2021/03/16 03:34:41;;;;;;;10.23;3.55;;;3.00;93.50;;;;;;5068059;28;20112;-69
2021/03/16 03:37:08;;;;;;;12.13;3.45;;;3.00;93.40;;;;;;5068139;28;20051;-69
2021/03/16 03:39:36;;;;;;;11.65;3.72;;;3.00;93.60;;;;;;5070936;28;20409;-69
2021/03/16 03:42:02;;;;;;;9.40;3.40;;;3.00;93.60;;;;;;5068382;28;20035;-69
2021/03/16 03:44:31;;;;;;;16.10;3.15;;;3.10;93.80;;;;;;5068617;28;20107;-69
2021/03/16 03:46:58;;;;;;;10.98;3.25;;;3.10;93.90;;;;;;5068671;28;20052;-69
2021/03/16 03:49:25;;;;;;;18.00;4.25;;;3.10;93.90;;;;;;5051235;28;20500;-69
2021/03/16 03:51:53;;;;;;;23.35;5.78;;;3.10;94.10;;;;;;5067178;28;20171;-69
2021/03/16 03:54:19;;;;;;;18.10;4.53;;;3.10;94.10;;;;;;5069007;28;20032;-69
2021/03/16 03:56:46;;;;;;;19.33;5.07;;;3.10;94.30;;;;;;5067012;28;20100;-68
2021/03/16 03:59:14;;;;;;;14.90;4.20;;;3.10;94.30;;;;;;5066671;28;20167;-69
2021/03/16 04:01:40;;;;;;;18.42;4.25;;;3.10;94.40;;;;;;5070072;28;20077;-69
2021/03/16 04:04:06;;;;;;;19.60;4.78;;;3.10;94.40;;;;;;5067682;28;20028;-69
2021/03/16 04:06:32;;;;;;;18.35;4.07;;;3.10;94.60;;;;;;5066314;28;20087;-69
2021/03/16 04:08:58;;;;;;;17.92;4.70;;;3.10;94.50;;;;;;5069761;28;20238;-69
2021/03/16 04:11:27;;;;;;;18.00;4.03;;;3.10;94.60;;;;;;5067653;28;20126;-70
2021/03/16 04:13:53;;;;;;;18.42;4.80;;;3.10;94.70;;;;;;5067495;28;20766;-69
2021/03/16 04:16:20;;;;;;;20.52;5.18;;;3.20;94.80;;;;;;5067865;28;20024;-69
2021/03/16 04:18:48;;;;;;;22.30;5.32;;;3.20;94.80;;;;;;5068657;28;20024;-69
2021/03/16 04:21:15;;;;;;;22.63;4.97;;;3.20;94.80;;;;;;5064615;28;20304;-69
2021/03/16 04:23:42;;;;;;;19.88;6.00;;;3.20;95.00;;;;;;5064203;28;20032;-69
2021/03/16 04:26:08;;;;;;;17.80;5.45;;;3.20;95.20;;;;;;5067413;28;20394;-69
2021/03/16 04:28:34;;;;;;;25.52;5.85;;;3.30;95.00;;;;;;5067246;28;20029;-69
2021/03/16 04:30:59;;;;;;;29.52;5.25;;;3.30;95.10;;;;;;5069912;28;21646;-69
2021/03/16 04:33:25;;;;;;;29.20;6.05;;;3.30;95.30;;;;;;5066086;28;20032;-69
2021/03/16 04:35:51;;;;;;;25.30;5.65;;;3.30;95.40;;;;;;5068141;28;20497;-70
2021/03/16 04:38:17;;;;;;;30.25;7.03;;;3.40;95.40;;;;;;5067508;28;20044;-69
2021/03/16 04:40:43;;;;;;;22.65;5.93;;;3.50;95.40;;;;;;5069735;28;20036;-69
2021/03/16 04:43:10;;;;;;;33.22;6.90;;;3.50;95.40;;;;;;5068286;28;20113;-70
2021/03/16 04:45:36;;;;;;;31.10;7.78;;;3.50;95.40;;;;;;5043806;28;20032;-70
2021/03/16 04:48:02;;;;;;;36.83;9.10;;;3.50;95.50;;;;;;5067447;28;20119;-69
2021/03/16 04:50:27;;;;;;;30.33;9.48;;;3.50;95.50;;;;;;5069981;28;20107;-69
2021/03/16 04:52:53;;;;;;;29.73;8.93;;;3.50;95.60;;;;;;5069870;28;20205;-69
2021/03/16 04:55:19;;;;;;;36.20;9.30;;;3.50;95.50;;;;;;5065291;28;20090;-69
2021/03/16 04:57:44;;;;;;;29.42;8.68;;;3.50;95.60;;;;;;5068524;28;20031;-69
2021/03/16 05:00:11;;;;;;;34.00;11.18;;;3.60;95.60;;;;;;5051423;28;20025;-69
2021/03/16 05:02:36;;;;;;;39.50;10.70;;;3.60;95.60;;;;;;5067581;28;20029;-69
2021/03/16 05:05:03;;;;;;;34.60;9.60;;;3.60;95.80;;;;;;5066137;28;20370;-70
2021/03/16 05:07:32;;;;;;;30.65;10.48;;;3.60;95.60;;;;;;5066649;28;20064;-70
2021/03/16 05:09:58;;;;;;;35.90;10.93;;;3.70;95.30;;;;;;5065577;28;20024;-69
2021/03/16 05:12:25;;;;;;;34.15;10.50;;;3.70;95.40;;;;;;5065471;28;20037;-69
2021/03/16 05:14:50;;;;;;;38.28;12.77;;;3.70;95.40;;;;;;5070251;28;20048;-69
2021/03/16 05:17:16;;;;;;;38.25;10.93;;;3.70;95.50;;;;;;5067589;28;20039;-69
2021/03/16 05:19:42;;;;;;;34.28;11.07;;;3.70;95.50;;;;;;5066630;28;20027;-68
2021/03/16 05:22:09;;;;;;;35.25;10.95;;;3.70;95.50;;;;;;5066719;28;20040;-69
2021/03/16 05:24:35;;;;;;;34.95;10.70;;;3.80;95.50;;;;;;5065344;28;20078;-69
2021/03/16 05:27:01;;;;;;;34.55;11.10;;;3.80;95.50;;;;;;5068629;28;20020;-70
2021/03/16 05:29:26;;;;;;;35.50;11.35;;;3.80;95.40;;;;;;5067579;28;20025;-69
2021/03/16 05:31:52;;;;;;;37.38;12.23;;;3.80;95.30;;;;;;5066039;28;20556;-69
2021/03/16 05:34:18;;;;;;;44.97;10.82;;;3.80;95.30;;;;;;5065691;28;20024;-69
2021/03/16 05:36:43;;;;;;;31.35;9.38;;;3.90;95.30;;;;;;5066609;28;20028;-69
2021/03/16 05:39:09;;;;;;;27.20;8.98;;;3.90;95.30;;;;;;5066043;28;20036;-69
2021/03/16 05:41:40;;;;;;;31.33;9.45;;;3.90;95.30;;;;;;5064062;28;20036;-69
2021/03/16 05:44:07;;;;;;;;;;;3.90;95.50;;;;;;5068409;28;20478;-69
2021/03/16 05:46:36;;;;;;;34.78;7.80;;;3.90;95.30;;;;;;5065726;28;20353;-69
2021/03/16 05:49:07;;;;;;;37.70;9.15;;;3.90;95.20;;;;;;5067674;28;20080;-70
2021/03/16 05:51:33;;;;;;;36.55;8.73;;;3.90;95.20;;;;;;5065780;28;20036;-69
2021/03/16 05:53:59;;;;;;;23.60;7.03;;;3.90;95.20;;;;;;5106132;22;20068;-73
2021/03/16 05:56:25;;;;;;;31.92;8.18;;;4.00;95.20;;;;;;5054756;28;20040;-72
2021/03/16 05:58:52;;;;;;;26.77;7.20;;;4.00;95.20;;;;;;5068034;28;20036;-73
2021/03/16 06:01:18;;;;;;;30.17;8.30;;;4.00;95.10;;;;;;5070471;28;20131;-73
2021/03/16 06:03:47;;;;;;;21.92;6.38;;;4.10;95.10;;;;;;5070252;28;20107;-73
2021/03/16 06:06:13;;;;;;;21.52;6.03;;;4.10;95.00;;;;;;5066873;28;20032;-72
2021/03/16 06:08:39;;;;;;;25.85;6.95;;;4.10;95.00;;;;;;5071692;28;20021;-73
2021/03/16 06:11:08;;;;;;;28.45;6.85;;;4.20;94.70;;;;;;5071082;28;20042;-73
2021/03/16 06:13:48;;;;;;;18.08;5.45;;;4.20;94.70;;;;;;5069704;28;20028;-73
2021/03/16 06:16:15;;;;;;;28.63;6.40;;;4.30;94.80;;;;;;5070024;28;20039;-72
2021/03/16 06:18:42;;;;;;;20.85;4.95;;;4.30;94.70;;;;;;5069285;28;20533;-74
2021/03/16 06:21:09;;;;;;;24.25;5.20;;;4.30;94.60;;;;;;5071381;28;20294;-73
2021/03/16 06:23:37;;;;;;;17.90;5.25;;;4.30;94.30;;;;;;5070536;28;20451;-72
2021/03/16 06:26:11;;;;;;;18.17;4.68;;;4.30;94.30;;;;;;5069418;28;20704;-74
2021/03/16 06:28:37;;;;;;;21.15;4.85;;;4.40;94.00;;;;;;5053321;28;20043;-74
2021/03/16 06:31:03;;;;;;;19.50;5.63;;;4.40;94.00;;;;;;5071027;28;20036;-74
2021/03/16 06:33:32;;;;;;;24.20;4.72;;;4.40;94.00;;;;;;5071291;28;20111;-74
2021/03/16 06:36:07;;;;;;;19.55;4.10;;;4.40;93.90;;;;;;5068659;28;20090;-74
2021/03/16 06:38:34;;;;;;;18.42;4.20;;;4.40;93.80;;;;;;5065747;28;20021;-73
2021/03/16 06:41:13;;;;;;;24.58;4.53;;;4.40;93.80;;;;;;5067403;28;20025;-73
2021/03/16 06:43:40;;;;;;;17.60;4.18;;;4.40;93.80;;;;;;5073859;28;20040;-73
2021/03/16 06:46:06;;;;;;;18.92;3.97;;;4.50;93.80;;;;;;5054703;28;20099;-72
2021/03/16 06:48:34;;;;;;;21.33;4.85;;;4.50;93.70;;;;;;5070824;28;20037;-73
2021/03/16 06:51:12;;;;;;;19.70;4.10;;;4.50;93.50;;;;;;5064330;28;20060;-72
2021/03/16 06:53:38;;;;;;;19.85;4.38;;;4.50;93.40;;;;;;5068193;28;20060;-73
2021/03/16 06:56:04;;;;;;;16.98;4.15;;;4.50;93.40;;;;;;5067046;28;20033;-74
2021/03/16 06:58:35;;;;;;;18.63;4.90;;;4.60;93.40;;;;;;5071083;28;20033;-73
2021/03/16 07:01:18;;;;;;;14.55;3.88;;;4.60;93.00;;;;;;5073642;28;20028;-73
2021/03/16 07:03:47;;;;;;;11.95;3.50;;;4.60;93.00;;;;;;5051018;28;20032;-73
2021/03/16 07:06:20;;;;;;;16.38;3.80;;;4.60;93.00;;;;;;5050940;28;20050;-72
2021/03/16 07:08:48;;;;;;;17.92;3.80;;;4.70;92.60;;;;;;5069677;28;20032;-73
2021/03/16 07:11:24;;;;;;;17.02;4.10;;;4.70;92.30;;;;;;5070367;28;20060;-75
2021/03/16 07:13:50;;;;;;;12.90;3.65;;;4.70;92.60;;;;;;5069438;28;20032;-74
2021/03/16 07:16:16;;;;;;;16.98;3.72;;;5.10;92.90;;;;;;5070234;28;20112;-74
2021/03/16 07:18:46;;;;;;;22.27;3.95;;;5.20;92.00;;;;;;5048492;28;20103;-75
2021/03/16 07:21:38;;;;;;;11.23;3.60;;;5.10;91.70;;;;;;5066702;28;20028;-75
2021/03/16 07:24:11;;;;;;;19.83;3.85;;;5.10;91.60;;;;;;5061807;28;20040;-73
2021/03/16 07:26:38;;;;;;;18.80;3.10;;;5.10;91.70;;;;;;5065276;28;20032;-74
2021/03/16 07:29:08;;;;;;;13.68;3.20;;;5.10;91.50;;;;;;5070664;28;20432;-75
2021/03/16 07:31:38;;;;;;;16.40;2.90;;;5.10;91.20;;;;;;5071879;28;20035;-73
2021/03/16 07:34:06;;;;;;;11.70;3.10;;;5.00;91.10;;;;;;5071854;28;20115;-72
2021/03/16 07:36:33;;;;;;;13.43;2.80;;;5.10;91.20;;;;;;5068730;28;20768;-70
2021/03/16 07:39:01;;;;;;;13.77;2.55;;;5.00;90.80;;;;;;5068967;28;20062;-71
2021/03/16 07:41:27;;;;;;;20.67;2.80;;;5.10;90.70;;;;;;5069074;28;20021;-71
2021/03/16 07:44:08;;;;;;;15.38;2.45;;;5.10;90.60;;;;;;5068966;28;20483;-72
2021/03/16 07:46:47;;;;;;;12.73;2.80;;;5.10;90.70;;;;;;5066393;28;20489;-71
2021/03/16 07:49:15;;;;;;;14.05;2.60;;;5.10;90.70;;;;;;5063040;28;20124;-72
2021/03/16 07:51:43;;;;;;;15.30;3.15;;;5.10;90.90;;;;;;5047520;28;20028;-73
2021/03/16 07:54:10;;;;;;;18.60;3.05;;;5.10;90.90;;;;;;5046361;28;20032;-74
2021/03/16 07:56:37;;;;;;;13.95;2.35;;;5.10;91.00;;;;;;5047518;28;20087;-72
2021/03/16 07:59:04;;;;;;;14.65;3.00;;;5.10;91.20;;;;;;5068217;28;20500;-73
2021/03/16 08:01:32;;;;;;;20.92;3.30;;;5.20;90.90;;;;;;5068411;28;20059;-73
2021/03/16 08:04:05;;;;;;;17.15;2.78;;;5.20;90.60;;;;;;5068738;28;20021;-72
2021/03/16 08:06:33;;;;;;;10.38;2.35;;;5.30;90.50;;;;;;5067243;28;20025;-72
2021/03/16 08:09:00;;;;;;;13.32;2.90;;;5.30;90.80;;;;;;5067381;28;20720;-71
2021/03/16 08:11:42;;;;;;;15.88;3.13;;;5.20;91.00;;;;;;5070189;28;20044;-72
2021/03/16 08:14:10;;;;;;;19.85;3.40;;;5.30;90.80;;;;;;5068630;28;20028;-72
2021/03/16 08:16:42;;;;;;;17.63;3.10;;;5.30;90.70;;;;;;5065142;28;20036;-76
2021/03/16 08:19:13;;;;;;;15.52;2.88;;;5.30;90.90;;;;;;5068998;28;20035;-74
2021/03/16 08:21:42;;;;;;;20.67;2.90;;;5.30;90.50;;;;;;5070032;28;20432;-74
2021/03/16 08:24:15;;;;;;;19.65;3.20;;;5.30;90.60;;;;;;5062895;28;20437;-73
2021/03/16 08:26:47;;;;;;;16.33;2.50;;;5.30;90.90;;;;;;5066047;28;20036;-73
2021/03/16 08:29:15;;;;;;;23.33;3.38;;;5.40;90.80;;;;;;5052667;28;20047;-74
2021/03/16 08:31:41;;;;;;;23.52;3.35;;;5.40;90.80;;;;;;5070524;28;20032;-74
2021/03/16 08:34:08;;;;;;;13.90;2.83;;;5.50;90.80;;;;;;5050633;28;20120;-74
2021/03/16 08:36:43;;;;;;;15.27;2.45;;;5.50;90.50;;;;;;5061390;28;20036;-74
2021/03/16 08:39:17;;;;;;;13.70;2.95;;;5.50;90.40;;;;;;5047064;28;20439;-75
2021/03/16 08:42:01;;;;;;;18.80;3.28;;;5.50;90.00;;;;;;5071653;28;20028;-74
2021/03/16 08:44:29;;;;;;;20.67;3.17;;;5.60;89.70;;;;;;5061459;28;20097;-74
2021/03/16 08:46:58;;;;;;;10.80;2.38;;;5.60;90.00;;;;;;5066563;28;20085;-74
2021/03/16 08:49:25;;;;;;;15.52;2.75;;;5.60;90.40;;;;;;5055275;28;20040;-75
2021/03/16 08:51:51;;;;;;;19.35;3.85;;;5.60;90.50;;;;;;5069395;28;20021;-74
2021/03/16 08:54:28;;;;;;;14.95;2.63;;;5.60;90.20;;;;;;5045903;28;20032;-74
2021/03/16 08:56:54;;;;;;;20.83;2.70;;;5.70;90.00;;;;;;5064241;28;20033;-74
2021/03/16 08:59:21;;;;;;;15.43;2.70;;;5.70;89.50;;;;;;5049956;28;20154;-75
2021/03/16 09:01:51;;;;;;;13.27;2.40;;;5.70;89.10;;;;;;5066256;28;20048;-75
2021/03/16 09:04:18;;;;;;;13.45;2.80;;;5.80;89.30;;;;;;5063899;28;20028;-74
2021/03/16 09:06:44;;;;;;;15.93;2.90;;;5.90;88.30;;;;;;5066390;28;20048;-74
2021/03/16 09:09:11;;;;;;;16.63;2.50;;;5.90;88.50;;;;;;5062312;28;20024;-74
2021/03/16 09:11:46;;;;;;;19.25;3.08;;;6.00;88.10;;;;;;5066785;28;20028;-74
2021/03/16 09:14:17;;;;;;;14.10;2.33;;;6.00;88.20;;;;;;5065294;28;20053;-74
2021/03/16 09:16:54;;;;;;;17.08;2.30;;;6.10;88.20;;;;;;5064988;28;20055;-74
2021/03/16 09:19:22;;;;;;;20.52;2.80;;;6.10;87.80;;;;;;5063288;28;20690;-74
2021/03/16 09:21:54;;;;;;;13.75;2.78;;;6.10;86.80;;;;;;5065473;28;20021;-75
2021/03/16 09:24:23;;;;;;;13.00;2.85;;;6.20;86.70;;;;;;5058697;28;20434;-74
2021/03/16 09:26:59;;;;;;;11.05;2.13;;;6.20;87.10;;;;;;5066214;28;20138;-74
2021/03/16 09:29:30;;;;;;;17.63;3.92;;;6.20;87.60;;;;;;5065737;28;20028;-74
2021/03/16 09:31:59;;;;;;;21.75;4.22;;;6.20;87.70;;;;;;5068072;28;20112;-74
2021/03/16 09:34:25;;;;;;;15.05;3.20;;;6.30;86.90;;;;;;5050561;28;20033;-73
2021/03/16 09:37:00;;;;;;;16.80;3.20;;;6.30;87.10;;;;;;5069467;28;20024;-74
2021/03/16 09:39:26;;;;;;;16.63;3.58;;;6.40;85.90;;;;;;5054127;28;20058;-73
2021/03/16 09:41:56;;;;;;;29.50;3.90;;;6.40;86.20;;;;;;5069416;28;20080;-74
2021/03/16 09:44:40;;;;;;;13.77;2.92;;;6.40;86.60;;;;;;5066897;28;20096;-73
2021/03/16 09:47:06;;;;;;;20.50;3.90;;;6.50;86.30;;;;;;5050253;28;20024;-74
2021/03/16 09:49:43;;;;;;;15.57;3.50;;;6.50;86.90;;;;;;5068382;28;20029;-75
2021/03/16 09:52:10;;;;;;;18.30;3.35;;;6.60;86.20;;;;;;5066999;28;20059;-73
2021/03/16 09:54:46;;;;;;;19.25;3.63;;;6.50;86.50;;;;;;5065560;28;20131;-74
2021/03/16 09:57:16;;;;;;;12.82;2.85;;;6.50;86.20;;;;;;5070512;28;20481;-74
2021/03/16 09:59:44;;;;;;;22.42;4.57;;;6.60;86.00;;;;;;5053516;28;20020;-74
2021/03/16 10:02:11;;;;;;;20.98;3.63;;;6.50;86.50;;;;;;5058491;28;20422;-74
2021/03/16 10:04:51;;;;;;;15.07;2.92;;;6.60;84.90;;;;;;5064590;28;20028;-75
2021/03/16 10:07:27;;;;;;;23.55;3.47;;;6.60;84.80;;;;;;5063340;28;20132;-73
2021/03/16 10:09:53;;;;;;;14.45;2.70;;;6.60;84.10;;;;;;5045118;28;20037;-74
2021/03/16 10:12:21;;;;;;;16.10;3.88;;;6.60;83.50;;;;;;5065795;28;20056;-73
2021/03/16 10:14:52;;;;;;;15.25;3.00;;;6.60;83.30;;;;;;5068983;28;20107;-74
2021/03/16 10:17:31;;;;;;;17.53;3.37;;;6.60;83.20;;;;;;5065186;28;20501;-74
2021/03/16 10:20:06;;;;;;;18.75;3.42;;;6.60;82.90;;;;;;5067705;28;20036;-73
2021/03/16 10:22:34;;;;;;;16.02;3.45;;;6.70;83.00;;;;;;5068622;28;20483;-72
2021/03/16 10:25:08;;;;;;;13.75;3.30;;;6.60;83.00;;;;;;5065687;28;20086;-73
2021/03/16 10:27:34;;;;;;;14.00;3.40;;;6.70;82.90;;;;;;5064608;28;20036;-74
2021/03/16 10:30:08;;;;;;;19.13;3.13;;;6.70;83.50;;;;;;5068840;28;20037;-74
2021/03/16 10:32:35;;;;;;;15.95;3.22;;;6.70;82.60;;;;;;5069819;28;20029;-74
2021/03/16 10:35:01;;;;;;;15.57;3.47;;;6.80;82.40;;;;;;5050856;28;20035;-73
2021/03/16 10:37:27;;;;;;;17.52;3.55;;;6.80;81.60;;;;;;5046732;28;20075;-73
2021/03/16 10:39:59;;;;;;;16.00;3.25;;;6.80;82.50;;;;;;5048609;28;20092;-72
2021/03/16 10:42:25;;;;;;;10.82;2.70;;;6.80;81.80;;;;;;5067600;28;20554;-73
2021/03/16 10:44:51;;;;;;;17.10;3.38;;;6.70;82.80;;;;;;5047109;28;20064;-73
2021/03/16 10:47:17;;;;;;;18.70;3.58;;;6.80;82.90;;;;;;5049169;28;20060;-76
2021/03/16 10:49:43;;;;;;;12.60;3.28;;;6.80;82.90;;;;;;5069025;28;20082;-72
2021/03/16 10:52:08;;;;;;;22.90;2.88;;;6.80;81.60;;;;;;5067972;28;20029;-73
2021/03/16 10:54:36;;;;;;;15.35;2.72;;;6.80;82.20;;;;;;5064257;28;20055;-72
2021/03/16 10:57:06;;;;;;;14.13;3.35;;;6.90;82.00;;;;;;5063223;28;20029;-73
2021/03/16 10:59:32;;;;;;;15.23;3.15;;;6.90;82.10;;;;;;5070552;28;21592;-75
2021/03/16 11:01:57;;;;;;;17.13;3.00;;;6.90;80.90;;;;;;5066578;28;20020;-73
2021/03/16 11:04:23;;;;;;;14.55;2.30;;;7.00;81.10;;;;;;5070985;28;20546;-74
2021/03/16 11:06:49;;;;;;;16.70;3.03;;;7.00;80.30;;;;;;5069819;28;20575;-74
2021/03/16 11:09:16;;;;;;;13.48;2.45;;;7.10;80.50;;;;;;5068734;28;20115;-74
2021/03/16 11:11:42;;;;;;;15.25;2.55;;;7.20;79.90;;;;;;5066944;28;20025;-74
2021/03/16 11:14:09;;;;;;;10.63;2.35;;;7.20;79.40;;;;;;5068158;28;20108;-74
2021/03/16 11:16:35;;;;;;;10.13;2.25;;;7.30;78.40;;;;;;5068880;28;20471;-73
2021/03/16 11:19:03;;;;;;;12.50;2.42;;;7.20;79.10;;;;;;5061742;28;20021;-72
2021/03/16 11:21:29;;;;;;;21.70;2.80;;;7.30;78.80;;;;;;5068159;28;20027;-73
2021/03/16 11:23:54;;;;;;;11.73;3.00;;;7.30;78.10;;;;;;5063353;28;20143;-74
2021/03/16 11:26:20;;;;;;;16.67;2.58;;;7.30;78.30;;;;;;5068683;28;20025;-75
2021/03/16 11:28:46;;;;;;;14.75;3.40;;;7.30;78.80;;;;;;5052622;28;20759;-75
2021/03/16 11:31:12;;;;;;;12.82;2.83;;;7.30;77.50;;;;;;5066462;28;20025;-74
2021/03/16 11:33:39;;;;;;;9.15;2.03;;;7.20;78.40;;;;;;5050850;28;20043;-76
2021/03/16 11:36:05;;;;;;;10.85;2.83;;;7.10;79.00;;;;;;5067703;28;20113;-75
2021/03/16 11:38:31;;;;;;;12.05;2.78;;;7.20;79.10;;;;;;5066569;28;20386;-74
2021/03/16 11:40:57;;;;;;;14.88;3.20;;;7.20;78.80;;;;;;5068589;28;20036;-70
2021/03/16 11:43:23;;;;;;;17.65;3.65;;;7.20;79.60;;;;;;5064549;28;20533;-73
2021/03/16 11:45:49;;;;;;;12.50;2.53;;;7.20;79.00;;;;;;5061527;28;20064;-74
2021/03/16 11:48:14;;;;;;;11.00;2.10;;;7.10;79.50;;;;;;5066054;28;20028;-70
2021/03/16 11:50:40;;;;;;;15.20;2.90;;;7.20;79.20;;;;;;5068818;28;20622;-76
2021/03/16 11:53:06;;;;;;;12.07;3.42;;;7.20;79.30;;;;;;5036249;28;20039;-74
2021/03/16 11:55:33;;;;;;;13.15;2.55;;;7.10;79.10;;;;;;5065501;28;20732;-74
2021/03/16 11:57:59;;;;;;;12.60;2.25;;;7.20;78.80;;;;;;5066098;28;20076;-73
2021/03/16 12:00:25;;;;;;;13.38;3.22;;;7.10;78.60;;;;;;5046713;28;20028;-72
2021/03/16 12:02:51;;;;;;;14.82;2.65;;;7.20;78.50;;;;;;5069150;28;20031;-72
2021/03/16 12:05:17;;;;;;;9.95;2.47;;;7.30;77.30;;;;;;5069522;28;20028;-73
2021/03/16 12:07:43;;;;;;;9.45;2.10;;;7.20;77.90;;;;;;5068184;28;20055;-73
2021/03/16 12:10:09;;;;;;;11.85;2.38;;;7.30;77.10;;;;;;5069635;28;20444;-74
2021/03/16 12:12:37;;;;;;;9.80;2.50;;;7.30;76.60;;;;;;5054466;28;20032;-74
2021/03/16 12:15:08;;;;;;;19.20;2.55;;;7.30;76.90;;;;;;5071684;28;20028;-72
2021/03/16 12:17:34;;;;;;;8.82;1.92;;;7.30;76.30;;;;;;5069889;28;20127;-72
2021/03/16 12:19:59;;;;;;;11.75;2.13;;;7.30;75.50;;;;;;5069829;28;20494;-70
2021/03/16 12:22:25;;;;;;;9.07;2.00;;;7.40;75.60;;;;;;5070443;28;20394;-71
2021/03/16 12:24:51;;;;;;;10.77;2.50;;;7.40;76.90;;;;;;5070570;28;20033;-71
2021/03/16 12:27:17;;;;;;;9.25;2.00;;;7.40;75.80;;;;;;5050156;28;20035;-74
2021/03/16 12:29:43;;;;;;;14.60;2.00;;;7.50;76.10;;;;;;5066270;28;20033;-75
2021/03/16 12:32:09;;;;;;;10.27;1.92;;;7.50;75.10;;;;;;5046525;28;20127;-72
2021/03/16 12:34:35;;;;;;;9.38;1.52;;;7.50;74.80;;;;;;5062137;28;20028;-73
2021/03/16 12:37:00;;;;;;;12.93;1.90;;;7.50;72.90;;;;;;5067122;28;20393;-72
2021/03/16 12:39:26;;;;;;;11.05;2.20;;;7.60;72.70;;;;;;5046444;28;20546;-73
2021/03/16 12:41:52;;;;;;;9.75;1.70;;;7.60;73.10;;;;;;5068244;28;20021;-71
2021/03/16 12:44:18;;;;;;;5.97;1.55;;;7.60;73.00;;;;;;5067726;28;20028;-73
2021/03/16 12:46:44;;;;;;;9.90;2.00;;;7.60;73.90;;;;;;5068751;28;20027;-74
2021/03/16 12:49:09;;;;;;;11.82;2.22;;;7.50;74.00;;;;;;5060447;28;20032;-74
2021/03/16 12:51:35;;;;;;;9.02;1.58;;;7.90;79.90;;;;;;5058470;28;20048;-74
2021/03/16 12:54:01;;;;;;;11.05;1.73;;;8.30;71.70;;;;;;5063052;28;20056;-73
2021/03/16 12:56:26;;;;;;;8.90;1.90;;;8.30;70.70;;;;;;5067258;28;20059;-75